createdAt,value
2023-03-29T00:00:52.346Z,92364.88
2023-03-29T00:03:19.134Z,92364.88
2023-03-29T00:05:45.887Z,92359.41
2023-03-29T00:08:14.846Z,92352.47
2023-03-29T00:10:42.226Z,92345.50
2023-03-29T00:13:08.963Z,92357.94
2023-03-29T00:15:35.777Z,92367.41
2023-03-29T00:18:02.388Z,92364.44
2023-03-29T00:20:29.061Z,92360.44
2023-03-29T00:22:55.753Z,92383.81
2023-03-29T00:25:22.297Z,92379.09
2023-03-29T00:27:49.212Z,92366.44
2023-03-29T00:30:16.428Z,92368.13
2023-03-29T00:32:43.788Z,92363.19
2023-03-29T00:35:10.980Z,92356.44
2023-03-29T00:37:38.056Z,92357.72
2023-03-29T00:40:15.454Z,92367.41
2023-03-29T00:42:45.342Z,92372.88
2023-03-29T00:45:11.791Z,92371.63
2023-03-29T00:47:44.876Z,92381.09
2023-03-29T00:50:22.213Z,92380.84
2023-03-29T00:52:54.945Z,92366.94
2023-03-29T00:55:24.507Z,92383.38
2023-03-29T00:57:53.634Z,92384.84
2023-03-29T01:00:31.804Z,92384.84
2023-03-29T01:03:00.885Z,92390.34
2023-03-29T01:05:39.265Z,92387.81
2023-03-29T01:08:11.140Z,92398.56
2023-03-29T01:10:47.047Z,92392.03
2023-03-29T01:13:20.868Z,92389.28
2023-03-29T01:15:48.155Z,92378.34
2023-03-29T01:18:14.667Z,92388.28
2023-03-29T01:20:56.792Z,92396.94
2023-03-29T01:24:12.075Z,92400.13
2023-03-29T01:27:01.003Z,92399.09
2023-03-29T01:29:45.763Z,92419.25
2023-03-29T01:32:22.331Z,92418.94
2023-03-29T01:34:51.593Z,92412.72
2023-03-29T01:37:24.691Z,92410.50
2023-03-29T01:39:52.419Z,92407.31
2023-03-29T01:42:31.799Z,92415.28
2023-03-29T01:45:15.437Z,92429.28
2023-03-29T01:47:54.729Z,92429.56
2023-03-29T01:50:30.641Z,92428.09
2023-03-29T01:53:04.194Z,92418.59
2023-03-29T01:55:36.033Z,92415.16
2023-03-29T01:58:05.539Z,92410.91
2023-03-29T02:00:34.858Z,92425.13
2023-03-29T02:03:05.784Z,92412.69
2023-03-29T02:05:34.971Z,92416.69
2023-03-29T02:08:05.305Z,92422.16
2023-03-29T02:10:33.963Z,92409.72
2023-03-29T02:13:00.946Z,92404.03
2023-03-29T02:15:28.136Z,92393.06
2023-03-29T02:17:54.763Z,92399.28
2023-03-29T02:20:40.614Z,92402.75
2023-03-29T02:23:18.088Z,92411.19
2023-03-29T02:25:45.795Z,92405.50
2023-03-29T02:28:13.064Z,92395.81
2023-03-29T02:30:54.964Z,92391.09
2023-03-29T02:33:31.225Z,92391.81
2023-03-29T02:36:03.123Z,92392.84
2023-03-29T02:38:31.336Z,92391.56
2023-03-29T02:40:58.807Z,92397.06
2023-03-29T02:43:27.490Z,92382.63
2023-03-29T02:45:54.604Z,92379.38
2023-03-29T02:48:25.606Z,92376.41
2023-03-29T02:50:58.065Z,92381.13
2023-03-29T02:53:32.379Z,92383.16
2023-03-29T02:56:02.219Z,92393.59
2023-03-29T02:58:29.546Z,92407.28
2023-03-29T03:00:58.680Z,92410.03
2023-03-29T03:03:25.549Z,92414.75
2023-03-29T03:05:52.610Z,92397.56
2023-03-29T03:08:19.848Z,92379.69
2023-03-29T03:10:46.738Z,92378.19
2023-03-29T03:13:13.754Z,92382.94
2023-03-29T03:15:42.818Z,92377.47
2023-03-29T03:18:10.644Z,92399.34
2023-03-29T03:20:37.194Z,92409.03
2023-03-29T03:23:03.778Z,92409.28
2023-03-29T03:25:30.403Z,92416.72
2023-03-29T03:27:57.225Z,92417.25
2023-03-29T03:30:23.881Z,92396.84
2023-03-29T03:32:50.399Z,92406.31
2023-03-29T03:35:16.995Z,92404.59
2023-03-29T03:37:43.509Z,92403.34
2023-03-29T03:40:11.718Z,92383.94
2023-03-29T03:42:39.874Z,92375.97
2023-03-29T03:45:08.364Z,92375.97
2023-03-29T03:47:37.514Z,92377.47
2023-03-29T03:50:05.530Z,92372.94
2023-03-29T03:52:32.080Z,92376.94
2023-03-29T03:54:58.616Z,92391.88
2023-03-29T03:57:25.153Z,92378.19
2023-03-29T03:59:52.349Z,92367.97
2023-03-29T04:02:20.301Z,92355.56
2023-03-29T04:04:47.656Z,92365.00
2023-03-29T04:07:14.425Z,92355.31
2023-03-29T04:09:40.985Z,92366.50
2023-03-29T04:12:07.650Z,92371.97
2023-03-29T04:14:34.132Z,92379.97
2023-03-29T04:17:01.457Z,92365.00
2023-03-29T04:19:28.168Z,92365.00
2023-03-29T04:21:54.712Z,92355.09
2023-03-29T04:24:23.132Z,92361.31
2023-03-29T04:26:49.647Z,92355.09
2023-03-29T04:29:16.116Z,92353.63
2023-03-29T04:31:42.655Z,92357.59
2023-03-29T04:34:09.233Z,92346.38
2023-03-29T04:36:35.809Z,92336.91
2023-03-29T04:39:04.232Z,92336.91
2023-03-29T04:41:32.611Z,92333.44
2023-03-29T04:43:59.098Z,92327.94
2023-03-29T04:46:26.754Z,92327.44
2023-03-29T04:48:54.072Z,92336.63
2023-03-29T04:51:22.316Z,92343.09
2023-03-29T04:53:50.166Z,92351.53
2023-03-29T04:56:17.295Z,92344.59
2023-03-29T04:58:44.397Z,92343.09
2023-03-29T05:01:11.387Z,92333.44
2023-03-29T05:03:37.982Z,92351.09
2023-03-29T05:06:07.334Z,92347.13
2023-03-29T05:08:38.359Z,92343.09
2023-03-29T05:11:09.459Z,92347.13
2023-03-29T05:13:36.818Z,92344.38
2023-03-29T05:16:04.523Z,92329.19
2023-03-29T05:18:31.933Z,92333.44
2023-03-29T05:20:59.565Z,92337.63
2023-03-29T05:23:26.435Z,92337.63
2023-03-29T05:25:53.443Z,92348.34
2023-03-29T05:28:20.006Z,92352.34
2023-03-29T05:30:47.562Z,92344.16
2023-03-29T05:33:14.124Z,92341.19
2023-03-29T05:35:40.615Z,92337.19
2023-03-29T05:38:07.200Z,92337.19
2023-03-29T05:40:33.745Z,92330.22
2023-03-29T05:43:02.492Z,92339.72
2023-03-29T05:45:29.839Z,92342.44
2023-03-29T05:47:57.526Z,92341.19
2023-03-29T05:50:24.363Z,92341.19
2023-03-29T05:52:51.585Z,92334.22
2023-03-29T05:55:18.480Z,92339.72
2023-03-29T05:57:45.113Z,92345.19
2023-03-29T06:00:31.915Z,92347.69
2023-03-29T06:03:06.445Z,92347.19
2023-03-29T06:05:40.391Z,92344.97
2023-03-29T06:08:06.875Z,92358.66
2023-03-29T06:10:33.376Z,92355.16
2023-03-29T06:13:00.166Z,92350.19
2023-03-29T06:15:26.681Z,92348.69
2023-03-29T06:17:53.266Z,92343.22
2023-03-29T06:20:19.948Z,92344.72
2023-03-29T06:22:47.940Z,92352.72
2023-03-29T06:25:15.612Z,92339.25
2023-03-29T06:27:42.167Z,92331.56
2023-03-29T06:30:09.237Z,92333.03
2023-03-29T06:32:36.157Z,92344.50
2023-03-29T06:35:02.725Z,92337.75
2023-03-29T06:37:29.302Z,92333.03
2023-03-29T06:39:57.008Z,92342.00
2023-03-29T06:42:24.082Z,92343.75
2023-03-29T06:44:50.636Z,92323.88
2023-03-29T06:47:17.385Z,92341.75
2023-03-29T06:49:44.431Z,92336.28
2023-03-29T06:52:11.411Z,92317.66
2023-03-29T06:54:38.867Z,92327.84
2023-03-29T06:57:05.534Z,92347.22
2023-03-29T06:59:32.090Z,92347.00
2023-03-29T07:01:58.703Z,92334.06
2023-03-29T07:04:25.381Z,92337.31
2023-03-29T07:07:01.402Z,92341.75
2023-03-29T07:09:30.065Z,92349.75
2023-03-29T07:11:58.144Z,92362.19
2023-03-29T07:14:28.529Z,92366.16
2023-03-29T07:16:55.911Z,92370.16
2023-03-29T07:19:24.280Z,92357.72
2023-03-29T07:21:54.289Z,92376.66
2023-03-29T07:24:21.686Z,92377.91
2023-03-29T07:27:00.076Z,92375.19
2023-03-29T07:29:29.571Z,92376.66
2023-03-29T07:31:57.471Z,92384.38
2023-03-29T07:34:24.448Z,92390.56
2023-03-29T07:36:51.563Z,92397.53
2023-03-29T07:39:18.134Z,92400.03
2023-03-29T07:41:44.635Z,92395.59
2023-03-29T07:44:11.187Z,92389.09
2023-03-29T07:46:37.939Z,92397.06
2023-03-29T07:49:05.509Z,92406.75
2023-03-29T07:51:32.127Z,92398.53
2023-03-29T07:53:59.807Z,92395.81
2023-03-29T07:56:26.460Z,92383.63
2023-03-29T07:58:53.044Z,92376.88
2023-03-29T08:01:20.405Z,92389.31
2023-03-29T08:03:47.266Z,92381.84
2023-03-29T08:06:16.130Z,92370.41
2023-03-29T08:08:42.738Z,92374.59
2023-03-29T08:11:10.209Z,92376.06
2023-03-29T08:13:37.382Z,92380.06
2023-03-29T08:16:05.806Z,92372.09
2023-03-29T08:18:34.680Z,92387.03
2023-03-29T08:21:02.070Z,92384.50
2023-03-29T08:23:28.785Z,92379.03
2023-03-29T08:25:55.343Z,92388.53
2023-03-29T08:28:22.305Z,92383.06
2023-03-29T08:30:49.742Z,92382.53
2023-03-29T08:33:16.973Z,92399.47
2023-03-29T08:35:43.813Z,92391.03
2023-03-29T08:38:11.237Z,92388.06
2023-03-29T08:40:37.989Z,92383.34
2023-03-29T08:43:31.720Z,92382.59
2023-03-29T08:46:11.629Z,92378.38
2023-03-29T08:48:48.587Z,92378.91
2023-03-29T08:51:24.518Z,92376.88
2023-03-29T08:54:03.862Z,92372.69
2023-03-29T08:56:34.291Z,92387.81
2023-03-29T08:59:01.550Z,92396.03
2023-03-29T09:01:34.213Z,92392.06
2023-03-29T09:04:22.799Z,92382.59
2023-03-29T09:06:49.733Z,92377.09
2023-03-29T09:09:20.454Z,92393.53
2023-03-29T09:12:06.013Z,92383.84
2023-03-29T09:14:38.891Z,92377.09
2023-03-29T09:17:26.486Z,92378.59
2023-03-29T09:20:18.757Z,92385.56
2023-03-29T09:22:51.436Z,92391.03
2023-03-29T09:25:52.530Z,92371.88
2023-03-29T09:28:41.362Z,92371.88
2023-03-29T09:31:16.709Z,92373.84
2023-03-29T09:33:55.749Z,92374.59
2023-03-29T09:36:31.632Z,92370.41
2023-03-29T09:38:58.702Z,92368.16
2023-03-29T09:41:31.257Z,92376.06
2023-03-29T09:44:02.846Z,92381.56
2023-03-29T09:46:54.221Z,92378.31
2023-03-29T09:49:26.851Z,92373.56
2023-03-29T09:51:56.131Z,92380.78
2023-03-29T09:54:23.135Z,92383.50
2023-03-29T09:56:49.687Z,92382.00
2023-03-29T09:59:16.205Z,92392.25
2023-03-29T10:01:46.813Z,92389.50
2023-03-29T10:04:14.330Z,92394.22
2023-03-29T10:06:49.273Z,92398.44
2023-03-29T10:09:21.548Z,92388.97
2023-03-29T10:11:57.708Z,92391.50
2023-03-29T10:14:36.998Z,92411.88
2023-03-29T10:17:15.564Z,92404.94
2023-03-29T10:19:49.833Z,92408.91
2023-03-29T10:22:25.595Z,92415.91
2023-03-29T10:24:54.953Z,92416.94
2023-03-29T10:27:29.605Z,92425.34
2023-03-29T10:29:59.604Z,92418.16
2023-03-29T10:32:35.323Z,92423.59
2023-03-29T10:35:16.816Z,92413.38
2023-03-29T10:37:48.231Z,92406.41
2023-03-29T10:40:27.158Z,92403.91
2023-03-29T10:42:58.043Z,92402.44
2023-03-29T10:45:28.864Z,92398.44
2023-03-29T10:47:57.802Z,92394.47
2023-03-29T10:50:32.324Z,92384.97
2023-03-29T10:52:59.041Z,92384.97
2023-03-29T10:55:35.072Z,92391.19
2023-03-29T10:58:18.798Z,92374.25
2023-03-29T11:00:56.938Z,92372.78
2023-03-29T11:03:35.492Z,92373.00
2023-03-29T11:06:14.768Z,92377.47
2023-03-29T11:08:52.837Z,92359.75
2023-03-29T11:11:58.487Z,92357.03
2023-03-29T11:14:52.339Z,92366.94
2023-03-29T11:17:45.698Z,92362.22
2023-03-29T11:20:44.805Z,92364.44
2023-03-29T11:23:29.646Z,92372.88
2023-03-29T11:26:04.792Z,92368.88
2023-03-29T11:28:46.595Z,92372.88
2023-03-29T11:31:24.568Z,92376.59
2023-03-29T11:34:14.502Z,92381.78
2023-03-29T11:36:57.805Z,92381.03
2023-03-29T11:40:01.222Z,92388.28
2023-03-29T11:42:33.308Z,92384.28
2023-03-29T11:45:02.170Z,92378.06
2023-03-29T11:47:40.461Z,92387.81
2023-03-29T11:50:23.424Z,92392.25
2023-03-29T11:52:54.519Z,92376.34
2023-03-29T11:55:38.062Z,92390.78
2023-03-29T11:58:13.251Z,92379.84
2023-03-29T12:00:48.233Z,92381.09
2023-03-29T12:03:40.125Z,92385.31
2023-03-29T12:06:12.821Z,92370.34
2023-03-29T12:08:46.115Z,92373.63
2023-03-29T12:11:27.534Z,92378.34
2023-03-29T12:13:59.936Z,92367.41
2023-03-29T12:16:32.627Z,92349.72
2023-03-29T12:19:05.321Z,92359.41
2023-03-29T12:21:34.478Z,92344.25
2023-03-29T12:24:01.184Z,92343.72
2023-03-29T12:26:57.746Z,92341.50
2023-03-29T12:29:45.510Z,92344.47
2023-03-29T12:32:43.639Z,92345.94
2023-03-29T12:35:28.413Z,92340.47
2023-03-29T12:38:03.699Z,92336.47
2023-03-29T12:40:41.807Z,92330.97
2023-03-29T12:43:15.936Z,92336.47
2023-03-29T12:45:48.654Z,92325.50
2023-03-29T12:48:18.560Z,92329.97
2023-03-29T12:51:07.816Z,92321.75
2023-03-29T12:53:38.796Z,92316.28
2023-03-29T12:56:08.770Z,92315.00
2023-03-29T12:59:06.738Z,92317.22
2023-03-29T13:01:36.979Z,92324.91
2023-03-29T13:04:36.388Z,92321.22
2023-03-29T13:07:03.850Z,92312.03
2023-03-29T13:09:48.943Z,92310.06
2023-03-29T13:12:15.843Z,92304.06
2023-03-29T13:15:03.815Z,92314.72
2023-03-29T13:18:03.878Z,92317.97
2023-03-29T13:20:46.728Z,92313.97
2023-03-29T13:23:42.836Z,92313.97
2023-03-29T13:26:22.025Z,92310.50
2023-03-29T13:29:09.634Z,92308.47
2023-03-29T13:31:44.361Z,92303.00
2023-03-29T13:34:37.758Z,92296.06
2023-03-29T13:37:07.746Z,92301.25
2023-03-29T13:39:40.359Z,92297.75
2023-03-29T13:42:19.758Z,92296.50
2023-03-29T13:44:49.190Z,92296.50
2023-03-29T13:47:40.205Z,92304.97
2023-03-29T13:50:16.597Z,92304.97
2023-03-29T13:52:51.991Z,92306.44
2023-03-29T13:55:25.772Z,92303.91
2023-03-29T13:58:04.235Z,92297.69
2023-03-29T14:00:47.132Z,92295.91
2023-03-29T14:03:17.580Z,92288.44
2023-03-29T14:05:57.192Z,92294.41
2023-03-29T14:08:28.926Z,92306.88
2023-03-29T14:10:56.642Z,92299.91
2023-03-29T14:13:25.295Z,92292.44
2023-03-29T14:15:55.259Z,92298.13
2023-03-29T14:18:24.089Z,92293.41
2023-03-29T14:20:56.150Z,92299.09
2023-03-29T14:23:25.465Z,92299.31
2023-03-29T14:25:52.038Z,92290.88
2023-03-29T14:28:25.028Z,92286.59
2023-03-29T14:30:52.872Z,92284.59
2023-03-29T14:33:28.037Z,92276.38
2023-03-29T14:36:00.401Z,92281.84
2023-03-29T14:38:27.562Z,92272.34
2023-03-29T14:40:59.352Z,92272.34
2023-03-29T14:43:30.335Z,92266.13
2023-03-29T14:45:58.444Z,92268.16
2023-03-29T14:48:25.060Z,92256.44
2023-03-29T14:50:51.691Z,92261.19
2023-03-29T14:53:21.209Z,92257.19
2023-03-29T14:55:51.720Z,92252.97
2023-03-29T14:58:36.801Z,92249.69
2023-03-29T15:01:17.704Z,92253.94
2023-03-29T15:03:50.322Z,92243.72
2023-03-29T15:06:16.998Z,92237.72
2023-03-29T15:08:57.565Z,92231.50
2023-03-29T15:11:29.715Z,92243.91
2023-03-29T15:14:18.290Z,92236.66
2023-03-29T15:16:46.991Z,92235.63
2023-03-29T15:19:25.603Z,92232.34
2023-03-29T15:21:52.291Z,92219.91
2023-03-29T15:24:30.800Z,92227.41
2023-03-29T15:27:11.131Z,92222.44
2023-03-29T15:29:41.732Z,92236.34
2023-03-29T15:32:10.422Z,92226.88
2023-03-29T15:34:38.358Z,92223.94
2023-03-29T15:37:04.974Z,92233.41
2023-03-29T15:39:31.987Z,92218.44
2023-03-29T15:41:58.668Z,92216.22
2023-03-29T15:44:32.091Z,92211.47
2023-03-29T15:46:59.895Z,92203.25
2023-03-29T15:49:26.827Z,92212.38
2023-03-29T15:51:54.304Z,92219.75
2023-03-29T15:54:21.996Z,92213.22
2023-03-29T15:56:55.412Z,92223.13
2023-03-29T15:59:22.739Z,92216.91
2023-03-29T16:01:49.446Z,92220.19
2023-03-29T16:04:18.484Z,92212.16
2023-03-29T16:06:48.674Z,92208.91
2023-03-29T16:09:19.048Z,92193.41
2023-03-29T16:11:46.426Z,92203.63
2023-03-29T16:14:24.159Z,92201.41
2023-03-29T16:17:01.413Z,92182.22
2023-03-29T16:19:29.567Z,92174.53
2023-03-29T16:21:57.072Z,92191.72
2023-03-29T16:24:29.544Z,92176.34
2023-03-29T16:26:56.844Z,92184.03
2023-03-29T16:29:24.974Z,92184.03
2023-03-29T16:31:52.694Z,92171.59
2023-03-29T16:34:19.894Z,92164.31
2023-03-29T16:36:48.084Z,92157.56
2023-03-29T16:39:15.937Z,92160.53
2023-03-29T16:41:43.281Z,92167.28
2023-03-29T16:44:15.809Z,92186.47
2023-03-29T16:46:42.334Z,92177.50
2023-03-29T16:49:14.038Z,92165.78
2023-03-29T16:51:40.665Z,92181.22
2023-03-29T16:54:07.375Z,92178.25
2023-03-29T16:56:36.456Z,92178.25
2023-03-29T16:59:03.517Z,92186.25
2023-03-29T17:01:30.152Z,92176.22
2023-03-29T17:03:57.180Z,92179.72
2023-03-29T17:06:23.889Z,92179.72
2023-03-29T17:08:50.550Z,92187.72
2023-03-29T17:11:17.547Z,92180.78
2023-03-29T17:13:44.540Z,92182.22
2023-03-29T17:16:11.253Z,92183.72
2023-03-29T17:18:37.916Z,92172.75
2023-03-29T17:21:04.867Z,92172.03
2023-03-29T17:23:31.606Z,92189.44
2023-03-29T17:25:58.159Z,92179.94
2023-03-29T17:28:24.786Z,92172.16
2023-03-29T17:30:51.773Z,92190.06
2023-03-29T17:33:22.473Z,92202.50
2023-03-29T17:35:49.419Z,92212.72
2023-03-29T17:38:16.041Z,92208.00
2023-03-29T17:40:42.765Z,92203.97
2023-03-29T17:43:09.260Z,92208.00
2023-03-29T17:45:36.026Z,92203.53
2023-03-29T17:48:05.557Z,92203.53
2023-03-29T17:50:32.997Z,92220.00
2023-03-29T17:52:59.523Z,92224.00
2023-03-29T17:55:26.473Z,92252.88
2023-03-29T17:57:53.055Z,92255.44
2023-03-29T18:00:20.085Z,92267.41
2023-03-29T18:02:46.706Z,92278.38
2023-03-29T18:05:13.399Z,92278.38
2023-03-29T18:07:39.963Z,92286.59
2023-03-29T18:10:08.173Z,92289.34
2023-03-29T18:12:34.964Z,92282.38
2023-03-29T18:15:01.616Z,92280.91
2023-03-29T18:17:28.243Z,92276.91
2023-03-29T18:19:54.961Z,92278.16
2023-03-29T18:22:23.921Z,92287.88
2023-03-29T18:24:51.070Z,92283.84
2023-03-29T18:27:18.440Z,92286.38
2023-03-29T18:29:45.060Z,92293.34
2023-03-29T18:32:11.689Z,92291.84
2023-03-29T18:34:39.302Z,92304.31
2023-03-29T18:37:06.254Z,92296.09
2023-03-29T18:39:34.723Z,92285.66
2023-03-29T18:42:01.768Z,92295.88
2023-03-29T18:44:28.678Z,92301.56
2023-03-29T18:46:55.214Z,92306.84
2023-03-29T18:49:21.735Z,92309.06
2023-03-29T18:51:49.974Z,92320.53
2023-03-29T18:54:17.140Z,92324.75
2023-03-29T18:56:43.999Z,92332.75
2023-03-29T18:59:11.417Z,92336.97
2023-03-29T19:01:38.151Z,92343.94
2023-03-29T19:04:05.300Z,92345.44
2023-03-29T19:06:31.982Z,92352.38
2023-03-29T19:09:01.901Z,92352.38
2023-03-29T19:11:29.930Z,92356.63
2023-03-29T19:13:56.696Z,92366.09
2023-03-29T19:16:23.309Z,92362.09
2023-03-29T19:18:49.859Z,92364.63
2023-03-29T19:21:16.395Z,92370.09
2023-03-29T19:23:43.001Z,92370.81
2023-03-29T19:26:11.513Z,92376.59
2023-03-29T19:28:38.073Z,92371.88
2023-03-29T19:31:04.729Z,92375.13
2023-03-29T19:33:32.367Z,92378.09
2023-03-29T19:35:58.949Z,92376.59
2023-03-29T19:38:25.573Z,92369.88
2023-03-29T19:40:52.361Z,92372.63
2023-03-29T19:43:20.729Z,92373.34
2023-03-29T19:45:49.190Z,92375.13
2023-03-29T19:48:22.284Z,92366.91
2023-03-29T19:50:50.678Z,92369.13
2023-03-29T19:53:17.344Z,92364.38
2023-03-29T19:55:45.389Z,92360.16
2023-03-29T19:58:12.501Z,92360.38
2023-03-29T20:00:39.135Z,92354.66
2023-03-29T20:03:09.310Z,92350.69
2023-03-29T20:05:38.348Z,92349.19
2023-03-29T20:08:04.978Z,92346.69
2023-03-29T20:10:32.000Z,92350.69
2023-03-29T20:12:59.139Z,92352.16
2023-03-29T20:15:26.062Z,92344.47
2023-03-29T20:17:55.311Z,92346.91
2023-03-29T20:20:26.680Z,92352.91
2023-03-29T20:22:58.090Z,92355.13
2023-03-29T20:25:25.040Z,92343.41
2023-03-29T20:27:51.640Z,92346.38
2023-03-29T20:30:18.157Z,92355.34
2023-03-29T20:32:44.741Z,92355.56
2023-03-29T20:35:11.696Z,92349.34
2023-03-29T20:37:38.178Z,92341.88
2023-03-29T20:40:05.697Z,92340.59
2023-03-29T20:42:34.462Z,92335.09
2023-03-29T20:45:01.452Z,92339.13
2023-03-29T20:47:29.449Z,92337.13
2023-03-29T20:49:56.853Z,92321.94
2023-03-29T20:52:24.095Z,92321.22
2023-03-29T20:54:51.028Z,92321.22
2023-03-29T20:57:20.673Z,92321.22
2023-03-29T20:59:49.147Z,92319.72
2023-03-29T21:02:21.269Z,92326.47
2023-03-29T21:04:52.081Z,92321.22
2023-03-29T21:07:20.054Z,92307.50
2023-03-29T21:09:48.333Z,92304.00
2023-03-29T21:12:14.889Z,92312.97
2023-03-29T21:14:41.627Z,92313.19
2023-03-29T21:17:09.480Z,92311.72
2023-03-29T21:19:38.762Z,92317.19
2023-03-29T21:22:05.596Z,92313.47
2023-03-29T21:24:33.080Z,92315.72
2023-03-29T21:26:59.931Z,92316.75
2023-03-29T21:29:26.522Z,92322.97
2023-03-29T21:31:53.124Z,92318.03
2023-03-29T21:34:19.680Z,92315.28
2023-03-29T21:36:46.227Z,92317.28
2023-03-29T21:39:12.751Z,92315.81
2023-03-29T21:41:39.266Z,92324.75
2023-03-29T21:44:05.919Z,92330.22
2023-03-29T21:46:32.431Z,92325.56
2023-03-29T21:48:59.055Z,92342.69
2023-03-29T21:51:25.594Z,92345.22
2023-03-29T21:53:52.083Z,92343.94
2023-03-29T21:56:18.555Z,92344.47
2023-03-29T21:58:45.151Z,92345.44
2023-03-29T22:01:11.685Z,92348.16
2023-03-29T22:03:38.520Z,92348.16
2023-03-29T22:06:11.006Z,92352.16
2023-03-29T22:08:40.663Z,92345.97
2023-03-29T22:11:13.787Z,92349.41
2023-03-29T22:13:41.592Z,92338.22
2023-03-29T22:16:09.143Z,92334.25
2023-03-29T22:18:43.839Z,92338.22
2023-03-29T22:21:17.586Z,92347.94
2023-03-29T22:23:50.830Z,92334.47
2023-03-29T22:26:19.628Z,92357.13
2023-03-29T22:28:46.157Z,92348.16
2023-03-29T22:31:15.148Z,92352.91
2023-03-29T22:33:42.281Z,92342.69
2023-03-29T22:36:18.154Z,92352.16
2023-03-29T22:38:46.256Z,92352.16
2023-03-29T22:41:13.217Z,92356.41
2023-03-29T22:43:39.991Z,92357.63
2023-03-29T22:46:08.203Z,92347.19
2023-03-29T22:48:35.657Z,92357.41
2023-03-29T22:51:02.656Z,92354.66
2023-03-29T22:53:29.348Z,92342.25
2023-03-29T22:55:55.980Z,92337.50
2023-03-29T22:58:22.585Z,92346.44
2023-03-29T23:00:49.728Z,92339.72
2023-03-29T23:03:16.688Z,92338.22
2023-03-29T23:05:58.613Z,92332.97
2023-03-29T23:08:26.136Z,92324.75
2023-03-29T23:10:52.813Z,92323.28
2023-03-29T23:13:29.415Z,92328.75
2023-03-29T23:15:58.876Z,92334.25
2023-03-29T23:18:27.760Z,92322.53
2023-03-29T23:20:56.497Z,92328.75
2023-03-29T23:23:24.480Z,92327.25
2023-03-29T23:25:52.587Z,92317.78
2023-03-29T23:28:21.362Z,92315.81
2023-03-29T23:30:58.588Z,92306.75
2023-03-29T23:33:26.345Z,92298.00
2023-03-29T23:35:54.409Z,92298.22
2023-03-29T23:38:20.840Z,92298.22
2023-03-29T23:40:58.649Z,92295.72
2023-03-29T23:43:32.518Z,92289.19
2023-03-29T23:46:01.129Z,92287.72
2023-03-29T23:48:28.098Z,92278.50
2023-03-29T23:50:57.190Z,92286.22
2023-03-29T23:53:25.486Z,92274.81
2023-03-29T23:55:52.088Z,92274.81
2023-03-29T23:58:18.601Z,92270.59
